createdAt,value
2023-03-15T00:01:56.545Z,2.90
2023-03-15T00:05:34.514Z,2.40
2023-03-15T00:08:53.038Z,1.90
2023-03-15T04:06:45.058Z,10.40
2023-03-15T04:09:48.509Z,2.60
2023-03-15T04:13:25.790Z,6.40
2023-03-15T04:17:04.877Z,4.80
2023-03-15T04:20:46.871Z,4.90
2023-03-15T04:24:39.164Z,6.00
2023-03-15T04:28:15.932Z,8.40
2023-03-15T04:31:44.746Z,6.20
2023-03-15T04:35:22.660Z,6.20
2023-03-15T04:39:05.398Z,5.90
2023-03-15T04:42:40.153Z,8.00
2023-03-15T04:46:16.254Z,6.40
2023-03-15T04:49:53.605Z,3.20
2023-03-15T04:53:31.554Z,3.10
2023-03-15T04:57:09.267Z,6.20
2023-03-15T05:00:47.145Z,5.60
2023-03-15T05:04:24.405Z,9.80
2023-03-15T05:08:02.473Z,10.60
2023-03-15T05:11:43.853Z,5.50
2023-03-15T05:15:40.716Z,4.50
2023-03-15T05:19:01.881Z,6.50
2023-03-15T05:23:00.611Z,6.10
2023-03-15T05:26:17.978Z,6.20
2023-03-15T05:29:56.023Z,12.40
2023-03-15T05:33:53.810Z,4.80
2023-03-15T05:37:12.856Z,6.10
2023-03-15T05:40:50.406Z,4.10
2023-03-15T05:44:28.178Z,5.20
2023-03-15T05:48:05.965Z,5.50
2023-03-15T05:51:44.025Z,5.40
2023-03-15T05:55:40.145Z,8.30
2023-03-15T05:59:17.845Z,4.60
2023-03-15T06:02:45.393Z,6.10
2023-03-15T06:06:39.536Z,6.60
2023-03-15T06:09:59.394Z,4.00
2023-03-15T06:13:36.184Z,5.20
2023-03-15T06:17:32.604Z,10.00
2023-03-15T06:20:51.270Z,4.40
2023-03-15T06:24:47.730Z,12.70
2023-03-15T06:28:07.188Z,7.00
2023-03-15T06:31:44.219Z,10.80
2023-03-15T06:35:22.355Z,8.90
2023-03-15T06:38:59.781Z,5.40
2023-03-15T06:42:39.409Z,8.90
2023-03-15T06:46:15.403Z,9.40
2023-03-15T06:50:11.648Z,9.30
2023-03-15T06:53:49.332Z,2.60
2023-03-15T06:57:08.284Z,8.80
2023-03-15T07:00:45.730Z,5.90
2023-03-15T07:04:25.707Z,3.70
2023-03-15T07:08:22.679Z,5.40
2023-03-15T07:11:38.914Z,5.20
2023-03-15T07:15:17.471Z,2.60
2023-03-15T07:18:56.539Z,8.10
2023-03-15T07:22:51.211Z,4.60
2023-03-15T07:26:09.536Z,13.10
2023-03-15T07:29:48.962Z,5.00
2023-03-15T07:33:44.014Z,3.50
2023-03-15T07:37:03.349Z,9.70
2023-03-15T07:40:40.470Z,2.80
2023-03-15T07:44:18.716Z,5.60
2023-03-15T07:47:56.679Z,5.60
2023-03-15T07:51:52.709Z,6.30
2023-03-15T07:55:11.259Z,5.60
2023-03-15T07:59:08.078Z,7.00
2023-03-15T08:02:26.768Z,9.70
2023-03-15T08:06:04.142Z,9.30
2023-03-15T08:10:01.051Z,3.70
2023-03-15T08:13:19.513Z,3.30
2023-03-15T08:16:57.119Z,8.50
2023-03-15T08:20:54.468Z,4.50
2023-03-15T08:24:12.735Z,3.70
2023-03-15T08:27:51.760Z,6.50
2023-03-15T08:31:27.970Z,9.70
2023-03-15T08:35:24.649Z,7.20
2023-03-15T08:39:05.327Z,6.40
2023-03-15T08:42:39.782Z,4.20
2023-03-15T08:46:17.603Z,3.90
2023-03-15T08:49:55.140Z,5.90
2023-03-15T08:53:14.159Z,6.20
2023-03-15T08:56:51.760Z,6.20
2023-03-15T09:00:49.201Z,3.80
2023-03-15T09:04:06.996Z,5.00
2023-03-15T09:07:45.778Z,7.80
2023-03-15T09:11:41.180Z,5.00
2023-03-15T09:15:19.313Z,4.90
2023-03-15T09:18:37.922Z,7.40
2023-03-15T09:22:23.900Z,7.90
2023-03-15T09:25:53.066Z,3.40
2023-03-15T09:29:30.970Z,3.60
2023-03-15T09:33:09.107Z,2.00
2023-03-15T09:36:52.918Z,2.20
2023-03-15T09:40:26.720Z,5.40
2023-03-15T09:44:38.385Z,2.50
2023-03-15T09:47:55.832Z,5.10
2023-03-15T09:51:43.353Z,5.70
2023-03-15T09:55:04.879Z,6.00
2023-03-15T09:58:59.060Z,4.50
2023-03-15T10:02:31.331Z,3.70
2023-03-15T10:06:35.751Z,3.90
2023-03-15T10:09:39.435Z,4.20
2023-03-15T10:14:01.060Z,4.30
2023-03-15T10:17:11.853Z,4.20
2023-03-15T10:20:48.032Z,0.80
2023-03-15T10:25:01.127Z,1.90
2023-03-15T10:28:17.097Z,2.50
2023-03-15T10:31:45.113Z,4.40
2023-03-15T10:35:19.777Z,4.10
2023-03-15T10:39:16.221Z,4.60
2023-03-15T10:42:35.794Z,4.60
2023-03-15T10:46:21.386Z,1.40
2023-03-15T10:49:50.803Z,3.80
2023-03-15T10:53:27.487Z,4.70
2023-03-15T10:57:28.475Z,3.30
2023-03-15T11:00:53.421Z,2.00
2023-03-15T11:04:27.084Z,3.10
2023-03-15T11:08:20.367Z,4.70
2023-03-15T11:11:58.802Z,4.50
2023-03-15T11:15:33.425Z,13.20
2023-03-15T11:19:14.027Z,3.80
2023-03-15T11:22:48.038Z,2.70
2023-03-15T11:26:32.665Z,2.90
2023-03-15T11:30:03.988Z,4.40
2023-03-15T11:33:51.445Z,8.50
2023-03-15T11:37:08.974Z,8.50
2023-03-15T11:40:53.756Z,4.40
2023-03-15T11:44:26.152Z,4.50
2023-03-15T11:48:21.095Z,5.50
2023-03-15T11:51:36.752Z,5.00
2023-03-15T11:55:26.705Z,7.00
2023-03-15T11:59:07.116Z,5.20
2023-03-15T12:02:53.395Z,5.40
2023-03-15T12:06:20.497Z,8.20
2023-03-15T12:09:47.726Z,2.70
2023-03-15T12:13:28.970Z,1.60
2023-03-15T12:17:28.547Z,6.50
2023-03-15T12:21:04.526Z,3.30
2023-03-15T12:24:23.741Z,4.60
2023-03-15T12:27:54.131Z,2.70
2023-03-15T12:31:52.011Z,4.40
2023-03-15T12:35:16.098Z,3.80
2023-03-15T12:38:41.875Z,3.70
2023-03-15T12:42:41.477Z,1.80
2023-03-15T12:46:40.712Z,5.10
2023-03-15T12:50:40.599Z,6.20
2023-03-15T12:53:47.981Z,4.90
2023-03-15T12:57:37.197Z,1.50
2023-03-15T13:01:18.039Z,5.00
2023-03-15T13:04:36.895Z,6.00
2023-03-15T13:08:22.311Z,4.90
2023-03-15T13:12:15.353Z,15.00
2023-03-15T13:15:57.242Z,7.00
2023-03-15T13:19:25.005Z,5.60
2023-03-15T13:23:05.520Z,4.60
2023-03-15T13:26:53.200Z,3.50
2023-03-15T13:30:36.490Z,1.80
2023-03-15T13:33:39.759Z,5.60
2023-03-15T13:37:25.776Z,2.50
2023-03-15T13:41:20.844Z,3.50
2023-03-15T13:45:14.912Z,2.90
2023-03-15T13:48:40.473Z,2.70
2023-03-15T13:51:55.256Z,1.10
2023-03-15T13:55:54.000Z,5.80
2023-03-15T13:59:12.660Z,5.10
2023-03-15T14:02:55.346Z,3.30
2023-03-15T14:06:27.030Z,3.10
2023-03-15T14:10:30.552Z,4.80
2023-03-15T14:13:51.684Z,4.70
2023-03-15T14:17:29.081Z,4.50
2023-03-15T14:21:19.272Z,4.20
2023-03-15T14:24:53.287Z,3.90
2023-03-15T14:28:15.987Z,5.40
2023-03-15T14:31:51.412Z,4.80
2023-03-15T14:35:42.852Z,6.30
2023-03-15T14:39:29.181Z,6.50
2023-03-15T14:42:45.926Z,3.60
2023-03-15T14:46:21.032Z,8.60
2023-03-15T14:49:58.148Z,2.90
2023-03-15T14:53:37.675Z,4.70
2023-03-15T14:57:32.469Z,8.90
2023-03-15T15:00:54.217Z,5.50
2023-03-15T15:04:33.648Z,3.30
2023-03-15T15:08:15.432Z,6.10
2023-03-15T15:12:03.494Z,3.50
2023-03-15T15:15:22.450Z,3.00
2023-03-15T15:19:18.688Z,5.10
2023-03-15T15:22:57.526Z,4.40
2023-03-15T15:26:23.416Z,12.20
2023-03-15T15:29:52.714Z,9.10
2023-03-15T15:33:31.576Z,6.00
2023-03-15T15:37:11.727Z,8.60
2023-03-15T15:40:45.636Z,5.80
2023-03-15T15:44:25.950Z,11.30
2023-03-15T15:48:06.047Z,5.20
2023-03-15T15:51:42.829Z,5.10
2023-03-15T15:55:20.055Z,5.30
2023-03-15T15:58:54.302Z,6.50
2023-03-15T16:02:31.888Z,3.10
2023-03-15T16:06:21.185Z,2.90
2023-03-15T16:09:49.030Z,3.80
2023-03-15T16:13:24.856Z,5.50
2023-03-15T16:17:02.732Z,6.20
2023-03-15T16:20:41.360Z,6.20
2023-03-15T16:24:40.542Z,6.90
2023-03-15T16:28:14.645Z,6.50
2023-03-15T16:31:52.411Z,7.40
2023-03-15T16:35:15.634Z,7.40
2023-03-15T16:38:49.472Z,4.60
2023-03-15T16:42:45.311Z,7.30
2023-03-15T16:46:23.076Z,11.70
2023-03-15T16:49:42.013Z,11.10
2023-03-15T16:53:19.628Z,7.50
2023-03-15T16:57:21.233Z,9.10
2023-03-15T17:00:34.973Z,6.10
2023-03-15T17:04:13.885Z,6.70
2023-03-15T17:07:53.008Z,8.60
2023-03-15T17:11:49.084Z,11.00
2023-03-15T17:15:06.472Z,9.50
2023-03-15T17:19:03.739Z,14.70
2023-03-15T17:22:21.547Z,24.10
2023-03-15T17:26:22.407Z,17.50
2023-03-15T17:29:36.393Z,15.50
2023-03-15T17:33:32.983Z,23.70
2023-03-15T17:36:51.797Z,20.00
2023-03-15T17:40:32.126Z,17.00
2023-03-15T17:44:09.907Z,41.90
2023-03-15T17:47:45.088Z,50.50
2023-03-15T17:51:41.674Z,97.60
2023-03-15T17:55:21.849Z,92.70
2023-03-15T17:58:37.912Z,59.80
2023-03-15T18:02:16.348Z,50.40
2023-03-15T18:05:53.510Z,42.80
2023-03-15T18:09:31.017Z,40.90
2023-03-15T18:13:28.297Z,57.20
2023-03-15T18:17:05.246Z,61.70
2023-03-15T18:20:24.305Z,72.80
2023-03-15T18:24:20.756Z,61.70
2023-03-15T18:27:39.385Z,62.50
2023-03-15T18:31:22.707Z,74.70
2023-03-15T18:35:35.180Z,67.70
2023-03-15T18:38:39.103Z,62.20
2023-03-15T18:42:15.872Z,60.60
2023-03-15T18:45:53.618Z,86.30
2023-03-15T18:49:53.135Z,67.30
2023-03-15T18:53:10.442Z,40.00
2023-03-15T18:56:46.546Z,39.90
2023-03-15T19:00:43.806Z,45.20
2023-03-15T19:04:03.507Z,35.20
2023-03-15T19:07:58.009Z,35.90
2023-03-15T19:11:17.228Z,38.70
2023-03-15T19:15:16.786Z,36.00
2023-03-15T19:18:33.121Z,24.00
2023-03-15T19:22:10.599Z,29.10
2023-03-15T19:25:51.036Z,27.20
2023-03-15T19:29:26.519Z,38.30
2023-03-15T19:33:24.995Z,30.10
2023-03-15T19:36:41.238Z,33.00
2023-03-15T19:40:20.303Z,34.50
2023-03-15T19:43:56.218Z,37.80
2023-03-15T19:47:33.998Z,41.00
2023-03-15T19:51:11.883Z,41.80
2023-03-15T19:54:50.076Z,42.20
2023-03-15T19:58:38.968Z,52.70
2023-03-15T20:02:23.574Z,41.20
2023-03-15T20:06:11.763Z,69.20
2023-03-15T20:09:40.146Z,54.00
2023-03-15T20:13:16.704Z,52.70
2023-03-15T20:16:35.412Z,29.20
2023-03-15T20:20:32.015Z,57.10
2023-03-15T20:24:10.077Z,39.60
2023-03-15T20:27:28.442Z,43.90
2023-03-15T20:31:17.494Z,65.60
2023-03-15T20:34:43.629Z,65.90
2023-03-15T20:38:40.530Z,48.80
2023-03-15T20:41:59.139Z,35.10
2023-03-15T20:45:59.027Z,31.70
2023-03-15T20:49:15.645Z,35.40
2023-03-15T20:52:52.760Z,44.80
2023-03-15T20:56:29.980Z,37.50
2023-03-15T21:00:17.106Z,31.70
2023-03-15T21:04:04.304Z,44.80
2023-03-15T21:07:22.899Z,34.90
2023-03-15T21:11:20.070Z,41.00
2023-03-15T21:14:38.420Z,37.30
2023-03-15T21:18:17.948Z,29.40
2023-03-15T21:21:53.611Z,37.90
2023-03-15T21:25:54.973Z,58.20
2023-03-15T21:29:09.336Z,27.60
2023-03-15T21:33:05.697Z,43.20
2023-03-15T21:36:43.443Z,46.50
2023-03-15T21:40:20.993Z,42.30
2023-03-15T21:43:39.950Z,47.50
2023-03-15T21:47:36.282Z,58.00
2023-03-15T21:51:14.747Z,56.30
2023-03-15T21:54:53.263Z,57.80
2023-03-15T21:58:10.464Z,40.90
2023-03-15T22:01:49.505Z,51.10
2023-03-15T22:05:25.883Z,43.70
2023-03-15T22:09:22.884Z,47.10
2023-03-15T22:12:42.569Z,46.20
2023-03-15T22:16:18.855Z,36.60
2023-03-15T22:20:18.532Z,47.70
2023-03-15T22:23:53.175Z,45.90
2023-03-15T22:27:12.360Z,47.20
2023-03-15T22:31:10.632Z,39.90
2023-03-15T22:34:27.622Z,45.30
2023-03-15T22:38:24.691Z,43.80
2023-03-15T22:42:01.399Z,53.30
2023-03-15T22:45:21.200Z,52.90
2023-03-15T22:48:59.117Z,49.80
2023-03-15T22:52:54.888Z,53.50
2023-03-15T22:56:32.316Z,60.30
2023-03-15T22:59:50.956Z,54.60
2023-03-15T23:03:29.059Z,54.90
2023-03-15T23:07:06.628Z,41.90
2023-03-15T23:11:03.978Z,44.10
2023-03-15T23:14:21.962Z,53.40
2023-03-15T23:18:18.918Z,61.40
2023-03-15T23:21:56.012Z,64.90
2023-03-15T23:25:17.097Z,70.30
2023-03-15T23:28:53.475Z,55.10
2023-03-15T23:32:31.231Z,47.10
2023-03-15T23:36:08.340Z,36.50
2023-03-15T23:40:13.754Z,45.90
2023-03-15T23:43:42.256Z,43.20
2023-03-15T23:47:02.975Z,38.20
2023-03-15T23:50:38.825Z,38.90
2023-03-15T23:54:16.115Z,48.00
2023-03-15T23:58:13.117Z,75.50
